Date,TemperatureHighF,TemperatureAvgF,TemperatureLowF,DewpointHighF,DewpointAvgF,DewpointLowF,HumidityHigh,HumidityAvg,HumidityLow,PressureMaxIn,PressureMinIn,WindSpeedMaxMPH,WindSpeedAvgMPH,GustSpeedMaxMPH,PrecipitationSumIn
2014-1-1,14,8,-3,5,-1,-14,76,65,58,30.41,30.08,13,2,13,0.00
2014-1-2,0,-3,-6,-6,-11,-15,75,69,59,30.41,30.00,17,3,17,0.00
2014-1-3,1,-9,-21,-10,-18,-28,72,64,49,30.42,29.94,19,4,19,0.00
2014-1-4,26,6,-20,4,-10,-28,72,49,26,30.42,30.07,17,4,21,0.00
2014-1-5,36,26,16,32,14,2,91,61,36,30.20,29.75,29,2,29,0.03
2014-1-6,47,34,18,44,28,11,94,81,57,29.75,29.18,30,4,30,0.32
2014-1-7,18,8,3,12,-8,-14,76,50,36,30.02,29.40,27,6,27,0.00
2014-1-8,19,11,4,2,-1,-4,72,58,44,30.34,30.02,16,5,16,0.00
2014-1-9,23,13,2,6,3,-3,82,66,42,30.56,30.32,16,2,16,0.00
2014-1-10,26,16,2,22,11,-3,86,80,73,30.50,30.15,2,0,4,0.00
2014-1-11,55,40,25,50,37,22,95,89,79,30.15,29.05,99,4,99,0.63
2014-1-12,46,37,33,40,28,22,81,70,60,29.87,29.14,24,3,24,0.01
2014-1-13,34,32,28,24,23,22,80,70,64,29.94,29.87,12,2,12,0.00
2014-1-21,4,-7,-17,-10,-16,-24,73,64,49,30.12,29.96,15,1,15,0.00
2014-1-22,4,-8,-16,-11,-18,-24,72,61,47,30.06,29.83,18,3,18,0.00
2014-1-23,11,-3,-19,-3,-13,-26,74,60,46,30.16,29.97,9,1,9,0.00
2014-1-24,12,4,-6,-5,-11,-16,67,51,36,30.23,29.77,22,4,22,0.00
2014-1-25,19,16,12,15,6,-7,83,64,39,29.77,29.23,16,5,20,0.00
2014-1-26,19,6,-6,12,-6,-16,81,56,42,29.73,29.23,17,2,17,0.00
2014-1-27,34,18,5,23,5,-14,85,59,29,29.94,29.28,26,3,26,0.00
2014-1-28,15,7,-5,-7,-11,-18,65,43,32,30.19,29.94,16,4,16,0.00
2014-1-29,18,7,-11,0,-10,-18,74,47,28,30.13,29.86,15,2,15,0.00
2014-1-30,27,17,3,7,2,-2,80,52,33,30.31,29.91,19,2,19,0.00
2014-1-31,31,28,23,17,9,-4,59,45,27,30.09,29.85,11,1,11,0.00